createdAt,value
2022-11-05T00:01:14.456Z,45.98
2022-11-05T00:03:04.534Z,45.75
2022-11-05T00:04:54.790Z,46.02
2022-11-05T00:06:44.885Z,45.75
2022-11-05T00:08:35.266Z,45.74
2022-11-05T00:10:18.990Z,45.82
2022-11-05T00:12:09.125Z,45.54
2022-11-05T00:13:59.262Z,45.83
2022-11-05T00:15:49.269Z,45.56
2022-11-05T00:17:21.129Z,45.72
2022-11-05T00:19:07.608Z,45.44
2022-11-05T00:20:39.134Z,45.75
2022-11-05T00:22:29.886Z,45.65
2022-11-05T00:24:24.138Z,45.85
2022-11-05T00:25:56.020Z,45.34
2022-11-05T00:27:27.545Z,45.49
2022-11-05T00:28:59.824Z,45.70
2022-11-05T00:30:31.781Z,45.38
2022-11-05T00:32:03.961Z,45.51
2022-11-05T00:33:35.961Z,45.25
2022-11-05T00:35:07.995Z,45.39
2022-11-05T00:36:39.594Z,45.88
2022-11-05T00:38:11.320Z,45.43
2022-11-05T00:39:44.433Z,45.38
2022-11-05T00:41:16.052Z,45.61
2022-11-05T00:43:06.498Z,45.81
2022-11-05T00:44:56.572Z,45.77
2022-11-05T00:46:28.282Z,45.57
2022-11-05T00:48:18.477Z,45.60
2022-11-05T00:49:50.093Z,45.62
2022-11-05T00:51:21.935Z,46.09
2022-11-05T00:52:56.971Z,46.05
2022-11-05T00:54:29.177Z,45.95
2022-11-05T00:56:01.264Z,45.73
2022-11-05T00:57:33.207Z,46.25
2022-11-05T00:59:05.084Z,45.79
2022-11-05T01:00:38.017Z,45.66
2022-11-05T01:02:09.650Z,45.72
2022-11-05T01:03:41.348Z,45.75
2022-11-05T01:05:13.208Z,45.91
2022-11-05T01:06:44.861Z,46.20
2022-11-05T01:08:16.842Z,46.13
2022-11-05T01:09:48.600Z,46.26
2022-11-05T01:11:37.289Z,46.78
2022-11-05T01:13:13.024Z,46.94
2022-11-05T01:14:45.138Z,46.98
2022-11-05T01:16:16.796Z,47.15
2022-11-05T01:17:48.520Z,46.86
2022-11-05T01:19:20.213Z,47.13
2022-11-05T01:20:51.822Z,47.18
2022-11-05T01:22:23.540Z,47.16
2022-11-05T01:23:55.129Z,47.08
2022-11-05T01:25:27.130Z,47.12
2022-11-05T01:26:58.948Z,47.48
2022-11-05T01:28:31.228Z,47.39
2022-11-05T01:30:03.707Z,47.45
2022-11-05T01:31:35.819Z,47.48
2022-11-05T01:33:08.127Z,47.45
2022-11-05T01:34:39.856Z,47.55
2022-11-05T01:36:11.484Z,47.49
2022-11-05T01:37:43.152Z,47.25
2022-11-05T01:39:14.701Z,47.57
2022-11-05T01:40:46.452Z,47.73
2022-11-05T01:42:22.087Z,47.53
2022-11-05T01:43:57.490Z,47.77
2022-11-05T01:45:29.169Z,48.01
2022-11-05T01:47:00.887Z,48.06
2022-11-05T01:48:33.871Z,47.83
2022-11-05T01:50:07.578Z,47.78
2022-11-05T01:51:39.262Z,48.17
2022-11-05T01:53:26.076Z,48.22
2022-11-05T01:54:57.602Z,48.19
2022-11-05T01:56:39.341Z,48.02
2022-11-05T01:58:11.824Z,48.30
2022-11-05T01:59:44.678Z,48.18
2022-11-05T02:01:16.515Z,48.32
2022-11-05T02:02:48.270Z,48.35
2022-11-05T02:04:33.039Z,48.00
2022-11-05T02:06:04.906Z,48.26
2022-11-05T02:07:36.429Z,47.83
2022-11-05T02:09:12.713Z,47.81
2022-11-05T02:10:44.547Z,48.05
2022-11-05T02:12:16.338Z,47.87
2022-11-05T02:13:48.842Z,47.97
2022-11-05T02:15:47.286Z,47.96
2022-11-05T02:17:19.235Z,47.60
2022-11-05T02:18:57.234Z,47.53
2022-11-05T02:20:32.177Z,48.04
2022-11-05T02:22:06.669Z,47.85
2022-11-05T02:23:38.294Z,47.97
2022-11-05T02:25:09.805Z,48.07
2022-11-05T02:26:44.634Z,47.91
2022-11-05T02:28:34.585Z,48.14
2022-11-05T02:30:09.370Z,47.91
2022-11-05T02:32:01.532Z,48.01
2022-11-05T02:33:36.064Z,47.96
2022-11-05T02:35:16.313Z,48.30
2022-11-05T02:36:51.386Z,48.24
2022-11-05T02:38:22.952Z,47.93
2022-11-05T02:40:06.885Z,48.25
2022-11-05T02:41:47.651Z,47.94
2022-11-05T02:43:28.692Z,48.42
2022-11-05T02:45:00.308Z,48.35
2022-11-05T02:46:50.353Z,48.13
2022-11-05T02:48:23.832Z,48.29
2022-11-05T02:49:55.786Z,48.34
2022-11-05T02:51:30.905Z,48.33
2022-11-05T02:53:04.858Z,48.29
2022-11-05T02:54:39.822Z,48.42
2022-11-05T02:56:15.864Z,48.52
2022-11-05T02:57:47.489Z,48.50
2022-11-05T02:59:19.058Z,48.54
2022-11-05T03:00:57.323Z,48.55
2022-11-05T03:02:28.952Z,48.48
2022-11-05T03:04:01.217Z,48.39
2022-11-05T03:05:48.694Z,48.34
2022-11-05T03:07:20.385Z,48.48
2022-11-05T03:08:58.260Z,48.46
2022-11-05T03:10:34.289Z,48.51
2022-11-05T03:12:05.897Z,48.23
2022-11-05T03:13:44.696Z,48.26
2022-11-05T03:15:19.738Z,48.50
2022-11-05T03:17:09.856Z,48.47
2022-11-05T03:19:01.368Z,48.55
2022-11-05T03:21:05.163Z,48.59
2022-11-05T03:22:37.631Z,48.48
2022-11-05T03:24:11.089Z,48.41
2022-11-05T03:25:44.008Z,48.37
2022-11-05T03:27:16.066Z,48.50
2022-11-05T03:28:48.550Z,48.33
2022-11-05T03:30:20.195Z,48.18
2022-11-05T03:31:52.532Z,48.13
2022-11-05T03:33:28.141Z,48.26
2022-11-05T03:35:03.772Z,48.13
2022-11-05T03:36:41.711Z,48.13
2022-11-05T03:38:18.219Z,48.04
2022-11-05T03:39:51.237Z,47.99
2022-11-05T03:41:23.191Z,48.02
2022-11-05T03:42:55.578Z,47.99
2022-11-05T03:44:30.938Z,47.96
2022-11-05T03:46:03.509Z,48.03
2022-11-05T03:47:36.663Z,48.02
2022-11-05T03:49:08.572Z,48.03
2022-11-05T03:50:45.333Z,48.29
2022-11-05T03:52:17.693Z,48.45
2022-11-05T03:53:50.484Z,48.41
2022-11-05T03:55:26.332Z,48.55
2022-11-05T03:56:57.943Z,48.46
2022-11-05T03:58:29.862Z,48.54
2022-11-05T04:00:01.600Z,48.56
2022-11-05T04:01:33.465Z,48.31
2022-11-05T04:03:05.245Z,48.27
2022-11-05T04:04:36.944Z,48.20
2022-11-05T04:06:27.428Z,48.31
2022-11-05T04:08:17.400Z,48.38
2022-11-05T04:10:07.331Z,48.48
2022-11-05T04:11:57.282Z,48.53
2022-11-05T04:13:29.380Z,48.37
2022-11-05T04:15:01.093Z,48.61
2022-11-05T04:16:51.270Z,48.74
2022-11-05T04:18:23.084Z,48.54
2022-11-05T04:20:13.125Z,48.67
2022-11-05T04:22:03.624Z,48.59
2022-11-05T04:23:53.647Z,48.37
2022-11-05T04:25:25.261Z,48.60
2022-11-05T04:26:56.886Z,48.57
2022-11-05T04:28:48.367Z,48.71
2022-11-05T04:30:20.443Z,48.74
2022-11-05T04:31:52.360Z,48.53
2022-11-05T04:33:23.963Z,48.45
2022-11-05T04:34:55.579Z,48.30
2022-11-05T04:36:27.242Z,48.31
2022-11-05T04:37:59.001Z,48.50
2022-11-05T04:39:30.658Z,48.45
2022-11-05T04:41:15.100Z,48.54
2022-11-05T04:42:46.745Z,48.75
2022-11-05T04:44:18.443Z,48.62
2022-11-05T04:45:50.135Z,48.86
2022-11-05T04:47:22.018Z,49.02
2022-11-05T04:48:53.552Z,48.99
2022-11-05T04:50:25.054Z,49.03
2022-11-05T04:51:56.586Z,49.04
2022-11-05T04:53:28.216Z,48.95
2022-11-05T04:54:59.927Z,49.10
2022-11-05T04:56:31.463Z,49.08
2022-11-05T04:58:02.998Z,48.95
2022-11-05T04:59:34.667Z,49.33
2022-11-05T05:01:06.405Z,49.05
2022-11-05T05:02:37.971Z,49.19
2022-11-05T05:04:09.525Z,49.20
2022-11-05T05:05:41.112Z,49.62
2022-11-05T05:07:12.727Z,49.44
2022-11-05T05:08:44.490Z,49.61
2022-11-05T05:10:16.078Z,49.61
2022-11-05T05:11:47.638Z,49.91
2022-11-05T05:13:19.144Z,49.84
2022-11-05T05:14:50.791Z,49.81
2022-11-05T05:16:23.277Z,49.76
2022-11-05T05:17:55.091Z,49.58
2022-11-05T05:19:26.820Z,49.77
2022-11-05T05:21:17.209Z,49.77
2022-11-05T05:22:53.026Z,49.82
2022-11-05T05:24:25.161Z,49.74
2022-11-05T05:25:58.489Z,49.69
2022-11-05T05:27:30.350Z,49.87
2022-11-05T05:29:02.027Z,50.29
2022-11-05T05:30:33.565Z,50.34
2022-11-05T05:32:06.064Z,50.19
2022-11-05T05:33:37.683Z,50.31
2022-11-05T05:35:09.640Z,50.13
2022-11-05T05:36:41.163Z,50.06
2022-11-05T05:38:12.950Z,49.99
2022-11-05T05:39:45.092Z,50.02
2022-11-05T05:41:16.731Z,50.01
2022-11-05T05:42:48.540Z,49.92
2022-11-05T05:44:20.181Z,49.92
2022-11-05T05:45:52.265Z,50.17
2022-11-05T05:47:24.330Z,49.92
2022-11-05T05:48:56.111Z,49.43
2022-11-05T05:50:27.792Z,49.81
2022-11-05T05:51:59.557Z,49.40
2022-11-05T05:53:31.354Z,49.51
2022-11-05T05:55:03.149Z,49.48
2022-11-05T05:56:34.966Z,49.58
2022-11-05T05:58:06.839Z,49.57
2022-11-05T05:59:38.357Z,49.81
2022-11-05T06:01:17.275Z,49.75
2022-11-05T06:02:50.608Z,49.63
2022-11-05T06:04:22.402Z,49.87
2022-11-05T06:05:54.005Z,49.76
2022-11-05T06:07:25.716Z,49.96
2022-11-05T06:08:57.321Z,49.77
2022-11-05T06:10:29.012Z,50.02
2022-11-05T06:12:00.962Z,50.06
2022-11-05T06:13:33.848Z,49.88
2022-11-05T06:15:06.394Z,50.17
2022-11-05T06:16:39.231Z,50.02
2022-11-05T06:18:11.920Z,49.85
2022-11-05T06:19:44.453Z,49.88
2022-11-05T06:21:17.407Z,49.95
2022-11-05T06:22:58.123Z,49.61
2022-11-05T06:24:29.987Z,49.75
2022-11-05T06:26:02.068Z,49.22
2022-11-05T06:27:33.981Z,49.23
2022-11-05T06:29:05.685Z,49.58
2022-11-05T06:30:38.048Z,49.40
2022-11-05T06:32:09.686Z,49.39
2022-11-05T06:33:41.390Z,49.18
2022-11-05T06:35:13.661Z,49.13
2022-11-05T06:36:45.368Z,49.32
2022-11-05T06:38:17.019Z,48.88
2022-11-05T06:39:48.769Z,48.73
2022-11-05T06:41:20.545Z,48.92
2022-11-05T06:42:53.270Z,48.91
2022-11-05T06:44:24.997Z,49.08
2022-11-05T06:45:57.611Z,48.61
2022-11-05T06:47:29.493Z,48.73
2022-11-05T06:49:01.609Z,48.39
2022-11-05T06:50:33.353Z,48.41
2022-11-05T06:52:05.754Z,48.22
2022-11-05T06:53:37.457Z,48.19
2022-11-05T06:55:09.504Z,48.25
2022-11-05T06:56:41.137Z,48.16
2022-11-05T06:58:13.249Z,47.95
2022-11-05T06:59:45.046Z,47.78
2022-11-05T07:01:16.881Z,47.71
2022-11-05T07:02:48.862Z,47.61
2022-11-05T07:04:20.703Z,47.33
2022-11-05T07:05:52.609Z,47.16
2022-11-05T07:07:24.326Z,47.06
2022-11-05T07:08:56.263Z,46.96
2022-11-05T07:10:28.518Z,46.76
2022-11-05T07:12:00.799Z,46.48
2022-11-05T07:13:32.548Z,46.34
2022-11-05T07:15:04.686Z,46.04
2022-11-05T07:16:36.666Z,45.93
2022-11-05T07:18:08.787Z,45.88
2022-11-05T07:19:41.125Z,45.80
2022-11-05T07:21:15.765Z,45.56
2022-11-05T07:22:47.438Z,45.54
2022-11-05T07:24:19.078Z,45.33
2022-11-05T07:25:51.210Z,45.37
2022-11-05T07:27:22.944Z,45.14
2022-11-05T07:28:55.409Z,44.90
2022-11-05T07:30:27.147Z,44.81
2022-11-05T07:31:59.041Z,44.72
2022-11-05T07:33:36.160Z,44.70
2022-11-05T07:35:08.916Z,44.90
2022-11-05T07:36:40.780Z,44.92
2022-11-05T07:38:13.117Z,44.73
2022-11-05T07:39:44.927Z,44.60
2022-11-05T07:41:16.800Z,44.16
2022-11-05T07:42:55.133Z,44.04
2022-11-05T07:44:26.787Z,43.97
2022-11-05T07:45:58.708Z,43.81
2022-11-05T07:47:30.442Z,43.92
2022-11-05T07:49:02.600Z,43.85
2022-11-05T07:50:35.144Z,43.46
2022-11-05T07:52:06.794Z,43.59
2022-11-05T07:53:43.956Z,43.42
2022-11-05T07:55:17.030Z,43.25
2022-11-05T07:56:48.695Z,43.14
2022-11-05T07:58:20.464Z,43.20
2022-11-05T07:59:52.259Z,43.08
2022-11-05T08:01:23.985Z,42.89
2022-11-05T08:03:07.227Z,42.71
2022-11-05T08:04:42.655Z,42.51
2022-11-05T08:06:14.337Z,42.50
2022-11-05T08:07:46.397Z,42.57
2022-11-05T08:09:18.218Z,42.42
2022-11-05T08:10:49.834Z,42.65
2022-11-05T08:12:21.532Z,42.60
2022-11-05T08:13:53.214Z,42.66
2022-11-05T08:15:24.767Z,42.79
2022-11-05T08:16:57.433Z,42.75
2022-11-05T08:18:32.165Z,42.86
2022-11-05T08:20:03.883Z,42.71
2022-11-05T08:21:35.469Z,42.83
2022-11-05T08:23:07.132Z,42.85
2022-11-05T08:24:38.941Z,42.68
2022-11-05T08:26:10.776Z,42.52
2022-11-05T08:27:42.688Z,42.62
2022-11-05T08:29:14.471Z,42.07
2022-11-05T08:30:48.842Z,41.86
2022-11-05T08:32:20.451Z,41.58
2022-11-05T08:33:52.205Z,41.36
2022-11-05T08:35:23.814Z,41.43
2022-11-05T08:36:55.527Z,41.18
2022-11-05T08:38:27.375Z,41.33
2022-11-05T08:39:59.243Z,41.48
2022-11-05T08:41:30.917Z,40.98
2022-11-05T08:43:03.746Z,41.22
2022-11-05T08:44:35.438Z,41.25
2022-11-05T08:46:07.255Z,41.34
2022-11-05T08:47:38.957Z,41.33
2022-11-05T08:49:10.854Z,41.41
2022-11-05T08:50:42.767Z,41.49
2022-11-05T08:52:14.707Z,41.58
2022-11-05T08:53:46.396Z,41.49
2022-11-05T08:55:19.825Z,41.52
2022-11-05T08:56:51.516Z,41.34
2022-11-05T08:58:23.258Z,41.55
2022-11-05T08:59:54.910Z,41.50
2022-11-05T09:01:26.832Z,41.48
2022-11-05T09:02:59.991Z,41.19
2022-11-05T09:04:31.634Z,41.08
2022-11-05T09:06:03.537Z,41.04
2022-11-05T09:07:35.214Z,41.36
2022-11-05T09:09:06.951Z,41.27
2022-11-05T09:10:38.750Z,41.30
2022-11-05T09:12:12.714Z,41.32
2022-11-05T09:13:44.906Z,41.56
2022-11-05T09:15:16.541Z,41.55
2022-11-05T09:16:48.224Z,41.58
2022-11-05T09:18:20.569Z,41.46
2022-11-05T09:19:52.127Z,41.40
2022-11-05T09:21:23.823Z,41.53
2022-11-05T09:22:55.834Z,41.45
2022-11-05T09:24:27.673Z,41.51
2022-11-05T09:26:00.083Z,41.57
2022-11-05T09:27:31.964Z,41.60
2022-11-05T09:29:03.491Z,41.67
2022-11-05T09:30:35.094Z,41.76
2022-11-05T09:34:40.038Z,41.82
2022-11-05T09:36:11.857Z,41.93
2022-11-05T09:37:43.503Z,41.89
2022-11-05T09:39:15.341Z,41.91
2022-11-05T09:40:47.216Z,42.00
2022-11-05T09:42:19.092Z,41.84
2022-11-05T09:43:52.101Z,42.10
2022-11-05T09:45:24.668Z,42.41
2022-11-05T09:47:00.049Z,42.34
2022-11-05T09:48:32.051Z,42.46
2022-11-05T09:50:05.907Z,42.53
2022-11-05T09:51:37.747Z,42.39
2022-11-05T09:53:11.496Z,42.20
2022-11-05T09:54:44.231Z,41.93
2022-11-05T09:56:23.830Z,42.13
2022-11-05T09:57:57.691Z,42.40
2022-11-05T09:59:38.580Z,42.28
2022-11-05T10:01:20.079Z,42.53
2022-11-05T10:02:53.615Z,42.66
2022-11-05T10:04:26.429Z,42.40
2022-11-05T10:06:00.112Z,42.45
2022-11-05T10:07:33.055Z,42.20
2022-11-05T10:09:09.537Z,42.22
2022-11-05T10:10:51.362Z,42.11
2022-11-05T10:12:40.931Z,42.04
2022-11-05T10:14:21.135Z,41.70
2022-11-05T10:16:14.325Z,41.63
2022-11-05T10:17:47.516Z,41.45
2022-11-05T10:19:26.257Z,41.46
2022-11-05T10:20:58.242Z,41.41
2022-11-05T10:22:29.720Z,41.41
2022-11-05T10:24:01.338Z,41.25
2022-11-05T10:25:33.539Z,41.23
2022-11-05T10:27:05.162Z,41.23
2022-11-05T10:28:37.070Z,41.18
2022-11-05T10:30:10.802Z,41.46
2022-11-05T10:31:42.460Z,41.65
2022-11-05T10:33:15.584Z,41.65
2022-11-05T10:34:47.097Z,41.69
2022-11-05T10:36:34.325Z,41.34
2022-11-05T10:38:06.164Z,41.60
2022-11-05T10:39:37.709Z,41.52
2022-11-05T10:41:15.773Z,41.47
2022-11-05T10:42:51.840Z,41.29
2022-11-05T10:44:35.252Z,41.06
2022-11-05T10:46:06.820Z,41.02
2022-11-05T10:47:57.366Z,41.16
2022-11-05T10:49:47.174Z,41.12
2022-11-05T10:51:18.958Z,41.10
2022-11-05T10:53:19.865Z,41.07
2022-11-05T10:54:52.525Z,40.96
2022-11-05T10:56:30.107Z,41.08
2022-11-05T10:58:10.275Z,41.02
2022-11-05T10:59:42.345Z,40.82
2022-11-05T11:01:13.964Z,40.78
2022-11-05T11:02:50.151Z,40.76
2022-11-05T11:04:23.191Z,40.48
2022-11-05T11:05:58.673Z,40.54
2022-11-05T11:07:30.469Z,40.50
2022-11-05T11:09:02.828Z,40.35
2022-11-05T11:10:40.333Z,40.61
2022-11-05T11:12:16.180Z,40.49
2022-11-05T11:13:58.848Z,40.32
2022-11-05T11:15:32.918Z,40.24
2022-11-05T11:17:23.744Z,40.12
2022-11-05T11:19:00.473Z,40.10
2022-11-05T11:20:32.289Z,40.27
2022-11-05T11:22:04.039Z,40.12
2022-11-05T11:23:42.354Z,39.92
2022-11-05T11:25:26.690Z,39.98
2022-11-05T11:27:04.748Z,40.01
2022-11-05T11:28:37.969Z,39.88
2022-11-05T11:30:16.046Z,39.93
2022-11-05T11:31:47.549Z,39.49
2022-11-05T11:33:21.214Z,39.51
2022-11-05T11:34:53.230Z,39.38
2022-11-05T11:36:25.417Z,39.36
2022-11-05T11:37:57.238Z,39.29
2022-11-05T11:39:29.231Z,39.20
2022-11-05T11:41:01.943Z,39.49
2022-11-05T11:42:34.577Z,39.29
2022-11-05T11:44:08.181Z,39.46
2022-11-05T11:45:47.111Z,39.30
2022-11-05T11:47:19.348Z,39.37
2022-11-05T11:48:51.495Z,39.15
2022-11-05T11:50:44.708Z,39.20
2022-11-05T11:52:24.702Z,39.21
2022-11-05T11:53:56.810Z,39.17
2022-11-05T11:55:28.381Z,39.07
2022-11-05T11:56:59.899Z,39.23
2022-11-05T11:58:41.971Z,39.22
2022-11-05T12:00:13.890Z,38.95
2022-11-05T12:01:49.762Z,38.75
2022-11-05T12:03:21.639Z,38.78
2022-11-05T12:05:06.372Z,38.83
2022-11-05T12:06:56.800Z,38.76
2022-11-05T12:08:31.792Z,38.91
2022-11-05T12:10:09.461Z,38.59
2022-11-05T12:11:46.807Z,38.40
2022-11-05T12:13:21.252Z,38.55
2022-11-05T12:14:57.835Z,38.54
2022-11-05T12:16:29.546Z,38.58
2022-11-05T12:18:02.791Z,38.40
2022-11-05T12:19:49.896Z,38.09
2022-11-05T12:21:48.052Z,38.29
2022-11-05T12:23:31.461Z,38.04
2022-11-05T12:25:18.262Z,38.20
2022-11-05T12:27:11.195Z,38.30
2022-11-05T12:30:53.120Z,38.14
2022-11-05T12:32:43.465Z,37.83
2022-11-05T12:34:30.290Z,37.91
2022-11-05T12:36:04.741Z,37.62
2022-11-05T12:37:55.554Z,37.73
2022-11-05T12:39:27.239Z,37.84
2022-11-05T12:41:03.092Z,37.82
2022-11-05T12:42:53.167Z,37.69
2022-11-05T12:44:25.046Z,37.63
2022-11-05T12:46:08.976Z,37.42
2022-11-05T12:47:43.405Z,37.23
2022-11-05T12:49:21.396Z,37.17
2022-11-05T12:51:02.586Z,36.99
2022-11-05T12:52:34.277Z,37.09
2022-11-05T12:54:05.946Z,36.93
2022-11-05T12:55:47.084Z,36.65
2022-11-05T12:57:21.194Z,36.76
2022-11-05T12:58:57.365Z,36.79
2022-11-05T13:00:28.880Z,36.60
2022-11-05T13:02:03.426Z,36.79
2022-11-05T13:03:50.869Z,36.77
2022-11-05T13:05:34.736Z,36.75
2022-11-05T13:07:06.945Z,36.76
2022-11-05T13:08:42.121Z,36.85
2022-11-05T13:10:19.968Z,36.83
2022-11-05T13:11:53.013Z,36.97
2022-11-05T13:13:31.831Z,36.93
2022-11-05T13:15:05.317Z,37.06
2022-11-05T13:16:44.199Z,37.11
2022-11-05T13:18:18.411Z,36.99
2022-11-05T13:19:54.732Z,37.14
2022-11-05T13:21:26.533Z,37.45
2022-11-05T13:23:04.663Z,37.59
2022-11-05T13:24:40.856Z,37.53
2022-11-05T13:26:19.843Z,37.51
2022-11-05T13:28:10.380Z,37.60
2022-11-05T13:29:47.185Z,37.65
2022-11-05T13:31:20.325Z,37.58
2022-11-05T13:33:03.001Z,37.46
2022-11-05T13:34:37.599Z,37.45
2022-11-05T13:36:34.180Z,37.44
2022-11-05T13:38:25.676Z,37.67
2022-11-05T13:40:00.125Z,37.74
2022-11-05T13:41:41.067Z,37.89
2022-11-05T13:43:12.869Z,37.78
2022-11-05T13:44:44.664Z,37.76
2022-11-05T13:46:20.508Z,37.85
2022-11-05T13:48:30.620Z,37.98
2022-11-05T13:50:14.477Z,38.03
2022-11-05T13:51:46.092Z,37.93
2022-11-05T13:53:36.389Z,37.86
2022-11-05T13:55:13.968Z,37.99
2022-11-05T13:57:04.258Z,38.07
2022-11-05T13:58:55.035Z,37.97
2022-11-05T14:00:28.678Z,38.10
2022-11-05T14:02:05.625Z,37.70
2022-11-05T14:03:37.352Z,37.79
2022-11-05T14:05:20.101Z,37.75
2022-11-05T14:06:52.109Z,37.78
2022-11-05T14:08:27.868Z,37.74
2022-11-05T14:10:00.368Z,37.89
2022-11-05T14:11:38.727Z,37.50
2022-11-05T14:13:29.028Z,37.50
2022-11-05T14:15:17.597Z,37.44
2022-11-05T14:16:51.490Z,37.33
2022-11-05T14:18:42.403Z,37.30
2022-11-05T14:20:43.725Z,37.22
2022-11-05T14:22:33.627Z,37.33
2022-11-05T14:24:24.212Z,37.13
2022-11-05T14:25:56.062Z,37.24
2022-11-05T14:27:36.985Z,36.93
2022-11-05T14:29:20.620Z,36.84
2022-11-05T14:30:52.488Z,36.96
2022-11-05T14:32:25.140Z,36.90
2022-11-05T14:34:01.362Z,37.13
2022-11-05T14:35:36.861Z,37.02
2022-11-05T14:37:09.900Z,36.94
2022-11-05T14:39:08.114Z,36.83
2022-11-05T14:40:43.700Z,36.71
2022-11-05T14:42:15.252Z,36.70
2022-11-05T14:43:47.956Z,36.73
2022-11-05T14:45:25.866Z,36.42
2022-11-05T14:47:00.033Z,36.33
2022-11-05T14:48:48.001Z,36.54
2022-11-05T14:50:21.671Z,36.24
2022-11-05T14:51:54.411Z,36.53
2022-11-05T14:53:33.963Z,36.37
2022-11-05T14:55:05.738Z,36.39
2022-11-05T14:56:44.150Z,36.42
2022-11-05T14:58:26.187Z,36.20
2022-11-05T15:00:01.352Z,36.20
2022-11-05T15:01:35.757Z,36.34
2022-11-05T15:03:26.531Z,36.36
2022-11-05T15:05:16.928Z,36.15
2022-11-05T15:07:17.386Z,36.31
2022-11-05T15:08:48.935Z,36.26
2022-11-05T15:10:20.837Z,36.43
2022-11-05T15:11:57.599Z,36.26
2022-11-05T15:13:33.650Z,36.42
2022-11-05T15:15:18.819Z,36.58
2022-11-05T15:16:54.449Z,36.35
2022-11-05T15:18:40.350Z,36.31
2022-11-05T15:20:15.879Z,36.36
2022-11-05T15:21:47.815Z,36.25
2022-11-05T15:23:20.763Z,36.49
2022-11-05T15:24:52.481Z,36.28
2022-11-05T15:26:24.249Z,36.00
2022-11-05T15:27:56.149Z,35.95
2022-11-05T15:29:28.855Z,36.05
2022-11-05T15:31:08.968Z,36.26
2022-11-05T15:32:41.292Z,36.30
2022-11-05T15:34:19.300Z,35.99
2022-11-05T15:35:50.925Z,36.13
2022-11-05T15:37:24.489Z,36.15
2022-11-05T15:39:27.452Z,36.16
2022-11-05T15:40:47.907Z,36.32
2022-11-05T15:42:23.417Z,36.21
2022-11-05T15:43:54.967Z,36.28
2022-11-05T15:45:26.563Z,36.26
2022-11-05T15:47:08.206Z,36.31
2022-11-05T15:48:39.903Z,36.31
2022-11-05T15:50:15.107Z,36.30
2022-11-05T15:51:50.109Z,36.60
2022-11-05T15:53:51.537Z,36.57
2022-11-05T15:55:27.741Z,36.38
2022-11-05T15:56:59.373Z,36.36
2022-11-05T15:58:31.623Z,36.60
2022-11-05T16:00:04.945Z,36.60
2022-11-05T16:01:37.411Z,36.86
2022-11-05T16:03:27.888Z,36.63
2022-11-05T16:04:59.529Z,36.89
2022-11-05T16:06:39.613Z,36.92
2022-11-05T16:08:12.462Z,37.12
2022-11-05T16:09:50.494Z,37.16
2022-11-05T16:11:23.449Z,37.33
2022-11-05T16:12:55.019Z,37.74
2022-11-05T16:14:26.801Z,37.24
2022-11-05T16:15:59.669Z,37.46
2022-11-05T16:17:32.527Z,37.82
2022-11-05T16:19:24.039Z,37.88
2022-11-05T16:21:02.954Z,37.94
2022-11-05T16:22:47.563Z,37.68
2022-11-05T16:24:28.147Z,37.62
2022-11-05T16:26:01.136Z,37.90
2022-11-05T16:27:32.731Z,38.03
2022-11-05T16:29:12.403Z,38.13
2022-11-05T16:30:52.020Z,37.59
2022-11-05T16:32:29.887Z,37.80
2022-11-05T16:34:03.543Z,37.56
2022-11-05T16:35:35.207Z,37.72
2022-11-05T16:37:07.413Z,37.83
2022-11-05T16:38:39.093Z,37.57
2022-11-05T16:40:21.042Z,38.13
2022-11-05T16:41:52.653Z,37.96
2022-11-05T16:43:25.102Z,37.99
2022-11-05T16:44:57.049Z,38.19
2022-11-05T16:46:29.133Z,38.95
2022-11-05T16:48:00.730Z,38.59
2022-11-05T16:49:32.524Z,38.48
2022-11-05T16:51:04.747Z,38.68
2022-11-05T16:52:36.927Z,39.04
2022-11-05T16:54:09.066Z,39.13
2022-11-05T16:55:41.363Z,39.18
2022-11-05T16:57:26.962Z,39.38
2022-11-05T16:58:58.570Z,39.12
2022-11-05T17:00:30.179Z,39.19
2022-11-05T17:02:02.248Z,39.74
2022-11-05T17:03:34.225Z,39.62
2022-11-05T17:05:07.804Z,39.39
2022-11-05T17:06:41.035Z,39.43
2022-11-05T17:08:14.531Z,39.68
2022-11-05T17:09:48.799Z,39.66
2022-11-05T17:11:20.907Z,39.92
2022-11-05T17:12:52.654Z,39.85
2022-11-05T17:14:24.728Z,40.14
2022-11-05T17:15:56.674Z,40.11
2022-11-05T17:17:29.533Z,40.45
2022-11-05T17:19:01.492Z,40.33
2022-11-05T17:20:40.786Z,40.52
2022-11-05T17:22:12.921Z,40.66
2022-11-05T17:23:44.939Z,40.36
2022-11-05T17:25:16.777Z,40.80
2022-11-05T17:26:48.649Z,40.71
2022-11-05T17:28:20.648Z,40.66
2022-11-05T17:29:53.053Z,40.48
2022-11-05T17:31:25.021Z,40.63
2022-11-05T17:32:56.901Z,41.03
2022-11-05T17:34:29.141Z,40.90
2022-11-05T17:36:01.091Z,40.83
2022-11-05T17:37:33.820Z,40.99
2022-11-05T17:39:05.844Z,40.96
2022-11-05T17:40:37.741Z,40.59
2022-11-05T17:42:09.845Z,41.04
2022-11-05T17:43:41.922Z,40.71
2022-11-05T17:45:13.635Z,41.15
2022-11-05T17:46:45.267Z,41.06
2022-11-05T17:48:17.102Z,40.86
2022-11-05T17:49:49.092Z,40.93
2022-11-05T17:51:21.195Z,40.90
2022-11-05T17:52:52.946Z,40.28
2022-11-05T17:54:24.719Z,40.45
2022-11-05T17:55:56.759Z,40.09
2022-11-05T17:57:28.676Z,40.27
2022-11-05T17:59:00.816Z,39.89
2022-11-05T18:00:32.447Z,39.94
2022-11-05T18:02:04.283Z,40.03
2022-11-05T18:03:36.444Z,40.18
2022-11-05T18:05:08.339Z,40.13
2022-11-05T18:06:40.375Z,40.13
2022-11-05T18:08:12.719Z,40.45
2022-11-05T18:09:44.287Z,40.37
2022-11-05T18:11:15.915Z,40.30
2022-11-05T18:12:48.138Z,40.38
2022-11-05T18:14:23.842Z,40.38
2022-11-05T18:15:56.332Z,40.33
2022-11-05T18:17:27.957Z,40.28
2022-11-05T18:18:59.640Z,40.54
2022-11-05T18:20:31.520Z,40.68
2022-11-05T18:22:03.246Z,40.71
2022-11-05T18:23:35.012Z,40.99
2022-11-05T18:25:06.909Z,40.67
2022-11-05T18:26:38.671Z,40.62
2022-11-05T18:28:10.772Z,41.04
2022-11-05T18:29:42.581Z,40.98
2022-11-05T18:31:18.678Z,40.76
2022-11-05T18:32:51.314Z,40.71
2022-11-05T18:34:23.058Z,41.03
2022-11-05T18:35:54.627Z,41.05
2022-11-05T18:37:26.493Z,40.97
2022-11-05T18:38:58.794Z,40.69
2022-11-05T18:40:31.078Z,40.71
2022-11-05T18:42:02.697Z,40.28
2022-11-05T18:43:34.767Z,40.36
2022-11-05T18:45:07.104Z,40.27
2022-11-05T18:48:31.115Z,40.48
2022-11-05T18:50:03.182Z,40.92
2022-11-05T18:51:37.941Z,40.75
2022-11-05T18:53:09.586Z,40.70
2022-11-05T18:54:41.297Z,40.58
2022-11-05T18:56:14.749Z,40.71
2022-11-05T18:57:46.557Z,40.26
2022-11-05T19:01:16.669Z,40.91
2022-11-05T19:02:48.537Z,41.09
2022-11-05T19:04:20.297Z,40.92
2022-11-05T19:05:52.028Z,40.65
2022-11-05T19:07:24.045Z,40.55
2022-11-05T19:08:56.509Z,40.45
2022-11-05T19:10:29.106Z,40.78
2022-11-05T19:12:01.299Z,40.77
2022-11-05T19:13:33.119Z,40.55
2022-11-05T19:15:05.142Z,40.40
2022-11-05T19:16:36.979Z,40.88
2022-11-05T19:18:09.046Z,40.91
2022-11-05T19:19:41.134Z,40.64
2022-11-05T19:21:19.881Z,40.86
2022-11-05T19:22:51.685Z,40.86
2022-11-05T19:24:23.474Z,40.59
2022-11-05T19:25:55.716Z,40.59
2022-11-05T19:27:27.470Z,40.67
2022-11-05T19:29:00.306Z,40.64
2022-11-05T19:30:32.029Z,40.84
2022-11-05T19:32:03.835Z,40.65
2022-11-05T19:33:35.908Z,40.82
2022-11-05T19:35:07.840Z,40.81
2022-11-05T19:36:40.050Z,41.18
2022-11-05T19:38:11.949Z,41.05
2022-11-05T19:39:44.206Z,41.21
2022-11-05T19:41:16.187Z,41.20
2022-11-05T19:42:47.965Z,40.94
2022-11-05T19:44:19.650Z,41.26
2022-11-05T19:45:51.211Z,40.69
2022-11-05T19:47:23.246Z,41.16
2022-11-05T19:48:55.110Z,40.72
2022-11-05T19:50:27.188Z,41.03
2022-11-05T19:51:59.350Z,40.67
2022-11-05T19:53:30.982Z,40.72
2022-11-05T19:55:05.598Z,40.92
2022-11-05T19:56:41.270Z,40.54
2022-11-05T19:58:13.459Z,40.52
2022-11-05T19:59:45.638Z,40.54
2022-11-05T20:01:17.986Z,40.67
2022-11-05T20:02:50.487Z,40.36
2022-11-05T20:04:22.420Z,40.64
2022-11-05T20:05:54.138Z,40.15
2022-11-05T20:07:26.147Z,40.65
2022-11-05T20:10:53.675Z,40.39
2022-11-05T20:12:25.798Z,40.91
2022-11-05T20:13:57.929Z,40.68
2022-11-05T20:15:29.716Z,41.01
2022-11-05T20:17:01.336Z,41.00
2022-11-05T20:18:33.135Z,40.83
2022-11-05T20:20:06.290Z,41.00
2022-11-05T20:21:38.255Z,40.99
2022-11-05T20:23:09.963Z,41.15
2022-11-05T20:24:44.546Z,40.80
2022-11-05T20:26:16.370Z,40.89
2022-11-05T20:27:48.030Z,41.13
2022-11-05T20:29:19.643Z,40.82
2022-11-05T20:30:51.334Z,41.02
2022-11-05T20:32:22.997Z,41.17
2022-11-05T20:33:55.080Z,40.87
2022-11-05T20:35:27.096Z,41.07